Time;durP1;ratioP1;P1;durP2;ratioP2;P2;SDS_P1;SDS_P2;PMS_P1;PMS_P2;Temp;Humidity;BMP_temperature;BMP_pressure;BME280_temperature;BME280_humidity;BME280_pressure;Samples;Min_cycle;Max_cycle;Signal;HPM_P1;HPM_P2
2022/12/02 00:01:52;;;;;;;22.27;17.60;;;15.80;61.10;;;;;;5051712;28;20538;-68
2022/12/02 00:04:22;;;;;;;22.38;17.55;;;15.80;61.10;;;;;;5052062;28;20179;-68
2022/12/02 00:06:49;;;;;;;20.95;17.23;;;15.80;61.10;;;;;;5052384;28;20179;-68
2022/12/02 00:09:18;;;;;;;21.02;17.38;;;15.80;61.10;;;;;;5053204;28;20548;-68
2022/12/02 00:11:43;;;;;;;21.98;16.30;;;15.80;61.10;;;;;;5052323;28;20262;-68
2022/12/02 00:14:27;;;;;;;19.65;16.98;;;15.80;61.10;;;;;;5051735;28;20222;-68
2022/12/02 00:16:53;;;;;;;22.08;18.05;;;15.80;61.10;;;;;;5052840;28;20212;-68
2022/12/02 00:19:19;;;;;;;21.15;17.52;;;15.80;61.10;;;;;;5052040;28;20297;-68
2022/12/02 00:21:44;;;;;;;20.58;16.73;;;15.80;61.10;;;;;;5052686;28;20651;-68
2022/12/02 00:24:10;;;;;;;19.55;16.90;;;15.80;61.10;;;;;;5053281;28;20171;-68
2022/12/02 00:26:35;;;;;;;20.55;17.35;;;15.70;61.10;;;;;;5051951;28;20175;-68
2022/12/02 00:29:01;;;;;;;20.92;17.88;;;15.70;61.00;;;;;;5052754;28;20257;-68
2022/12/02 00:31:26;;;;;;;20.60;17.35;;;15.70;61.00;;;;;;5053417;28;20260;-68
2022/12/02 00:33:52;;;;;;;20.30;17.15;;;15.70;61.00;;;;;;5051777;28;20210;-68
2022/12/02 00:36:17;;;;;;;22.52;17.70;;;15.70;61.00;;;;;;5052919;28;20285;-68
2022/12/02 00:38:43;;;;;;;19.58;16.23;;;15.70;61.10;;;;;;5052433;28;20167;-68
2022/12/02 00:41:08;;;;;;;21.33;17.48;;;15.70;61.00;;;;;;5052167;28;20175;-67
2022/12/02 00:46:30;;;;;;;21.40;16.17;;;15.70;61.10;;;;;;5052633;28;20312;-67
2022/12/02 00:48:56;;;;;;;21.20;17.38;;;15.70;61.00;;;;;;5052068;28;20190;-68
2022/12/02 00:51:22;;;;;;;20.30;17.08;;;15.60;60.90;;;;;;5052725;28;20571;-68
2022/12/02 00:53:47;;;;;;;19.85;16.65;;;15.60;60.90;;;;;;5051456;28;20592;-67
2022/12/02 00:56:13;;;;;;;22.60;17.13;;;15.60;60.90;;;;;;5052687;28;20536;-67
2022/12/02 00:58:38;;;;;;;20.90;17.63;;;15.60;61.80;;;;;;5052554;28;20214;-67
2022/12/02 01:01:04;;;;;;;20.70;15.85;;;15.60;60.90;;;;;;5051981;28;20258;-68
2022/12/02 01:03:29;;;;;;;20.05;17.05;;;15.60;60.90;;;;;;5052648;28;20270;-68
2022/12/02 01:05:55;;;;;;;21.10;17.13;;;15.60;60.90;;;;;;5052340;28;20274;-68
2022/12/02 01:08:24;;;;;;;19.30;16.27;;;15.60;61.00;;;;;;5051774;28;20190;-68
2022/12/02 01:10:49;;;;;;;21.90;17.33;;;15.60;60.90;;;;;;5055081;28;20182;-68
2022/12/02 01:13:15;;;;;;;20.77;17.27;;;15.60;60.90;;;;;;5057053;28;20210;-68
2022/12/02 01:15:40;;;;;;;21.20;16.88;;;15.60;60.90;;;;;;5055145;28;20650;-68
2022/12/02 01:18:06;;;;;;;20.48;16.33;;;15.60;60.90;;;;;;5056123;28;20260;-67
2022/12/02 01:20:31;;;;;;;20.17;16.55;;;15.60;60.90;;;;;;5056107;28;20175;-68
2022/12/02 01:22:57;;;;;;;21.52;16.25;;;15.50;60.90;;;;;;5055432;28;20179;-68
2022/12/02 01:25:23;;;;;;;19.38;15.75;;;15.50;60.90;;;;;;5056293;28;20179;-68
2022/12/02 01:27:48;;;;;;;17.67;15.65;;;15.50;60.90;;;;;;5055750;28;20171;-68
2022/12/02 01:30:14;;;;;;;19.15;15.52;;;15.50;60.90;;;;;;5055493;28;20202;-68
2022/12/02 01:32:39;;;;;;;19.45;16.60;;;15.50;60.90;;;;;;5055486;28;20626;-68
2022/12/02 01:35:05;;;;;;;20.45;16.85;;;15.50;60.80;;;;;;5055917;28;20175;-68
2022/12/02 01:37:31;;;;;;;17.25;15.38;;;15.50;60.80;;;;;;5054909;28;20175;-68
2022/12/02 01:39:56;;;;;;;19.05;16.25;;;15.50;60.80;;;;;;5055713;28;20709;-68
2022/12/02 01:42:22;;;;;;;18.58;15.13;;;15.50;60.90;;;;;;5055768;28;20171;-68
2022/12/02 01:44:47;;;;;;;19.58;16.40;;;15.50;60.80;;;;;;5054919;28;20179;-67
2022/12/02 01:47:13;;;;;;;18.80;16.00;;;15.40;60.80;;;;;;5055750;28;20179;-67
2022/12/02 01:49:38;;;;;;;18.17;15.02;;;15.50;60.80;;;;;;5054185;28;20183;-68
2022/12/02 01:52:04;;;;;;;19.17;16.25;;;15.40;60.80;;;;;;5054715;28;20736;-67
2022/12/02 01:54:29;;;;;;;20.30;15.73;;;15.50;60.80;;;;;;5054490;28;20271;-68
2022/12/02 01:56:55;;;;;;;19.33;15.95;;;15.40;60.80;;;;;;5054288;28;20167;-67
2022/12/02 01:59:21;;;;;;;20.40;16.00;;;15.40;60.80;;;;;;5053641;28;20179;-67
2022/12/02 02:01:47;;;;;;;18.95;16.20;;;15.40;60.80;;;;;;5054081;28;20198;-68
2022/12/02 02:04:12;;;;;;;17.80;15.35;;;15.40;61.00;;;;;;5054783;28;20183;-68
2022/12/02 02:06:40;;;;;;;18.48;15.60;;;15.40;60.80;;;;;;5055048;28;20182;-68
2022/12/02 02:09:06;;;;;;;18.85;16.10;;;15.40;60.80;;;;;;5055242;28;20553;-68
2022/12/02 02:11:32;;;;;;;18.77;15.75;;;15.40;60.80;;;;;;5053220;28;20178;-68
2022/12/02 02:13:58;;;;;;;20.00;16.40;;;15.40;60.80;;;;;;5055342;28;20187;-68
2022/12/02 02:16:24;;;;;;;17.05;15.25;;;15.40;60.80;;;;;;5055308;28;20193;-68
2022/12/02 02:18:49;;;;;;;19.77;15.32;;;15.40;60.80;;;;;;5053979;28;20603;-68
2022/12/02 02:21:20;;;;;;;19.65;16.20;;;15.40;60.80;;;;;;5054287;28;20171;-67
2022/12/02 02:23:46;;;;;;;18.30;15.27;;;15.40;60.80;;;;;;5054632;28;20558;-68
2022/12/02 02:26:11;;;;;;;17.38;14.85;;;15.30;61.60;;;;;;5054173;28;20172;-68
2022/12/02 02:28:37;;;;;;;19.17;15.95;;;15.30;60.80;;;;;;5054711;28;20206;-68
2022/12/02 02:31:02;;;;;;;19.10;15.68;;;15.30;60.80;;;;;;5054821;28;20221;-68
2022/12/02 02:33:28;;;;;;;18.17;15.20;;;15.30;60.80;;;;;;5052914;28;20219;-68
2022/12/02 02:35:54;;;;;;;16.60;14.10;;;15.30;60.80;;;;;;5053379;28;20175;-68
2022/12/02 02:38:23;;;;;;;18.35;15.48;;;15.30;60.80;;;;;;5053443;28;20203;-68
2022/12/02 02:40:49;;;;;;;16.00;13.90;;;15.30;60.80;;;;;;5053776;28;20175;-67
2022/12/02 02:43:15;;;;;;;17.10;15.27;;;15.30;60.80;;;;;;5053867;28;20225;-68
2022/12/02 02:45:40;;;;;;;18.45;15.35;;;15.30;60.80;;;;;;5053221;28;20633;-68
2022/12/02 02:48:07;;;;;;;17.15;14.20;;;15.30;60.80;;;;;;5053845;28;20272;-67
2022/12/02 02:50:33;;;;;;;17.10;14.52;;;15.30;60.80;;;;;;5054055;28;20657;-68
2022/12/02 02:53:00;;;;;;;17.38;14.80;;;15.30;60.70;;;;;;5054583;28;20207;-68
2022/12/02 02:55:26;;;;;;;16.65;13.48;;;15.30;60.80;;;;;;5053891;28;20175;-67
2022/12/02 02:57:51;;;;;;;16.70;14.18;;;15.30;60.80;;;;;;5054231;28;20175;-67
2022/12/02 03:00:18;;;;;;;16.70;14.32;;;15.20;60.70;;;;;;5054376;28;20202;-67
2022/12/02 03:02:44;;;;;;;17.08;14.25;;;15.20;60.70;;;;;;5053136;28;20182;-68
2022/12/02 03:05:09;;;;;;;17.10;14.35;;;15.20;60.70;;;;;;5052950;28;20177;-68
2022/12/02 03:07:35;;;;;;;18.63;15.05;;;15.20;60.70;;;;;;5052230;28;20236;-68
2022/12/02 03:10:01;;;;;;;17.20;14.52;;;15.20;60.70;;;;;;5054298;28;20167;-68
2022/12/02 03:12:27;;;;;;;16.55;13.63;;;15.20;60.70;;;;;;5052962;28;20213;-68
2022/12/02 03:14:52;;;;;;;18.10;14.85;;;15.20;60.70;;;;;;5053137;28;20167;-68
2022/12/02 03:17:18;;;;;;;16.77;14.15;;;15.20;60.70;;;;;;5052803;28;20171;-67
2022/12/02 03:19:43;;;;;;;17.55;14.38;;;15.20;60.70;;;;;;5052308;28;20326;-68
2022/12/02 03:22:09;;;;;;;18.95;15.23;;;15.20;60.70;;;;;;5053542;28;20195;-68
2022/12/02 03:24:34;;;;;;;16.45;13.02;;;15.10;60.60;;;;;;5052553;28;20530;-68
2022/12/02 03:27:00;;;;;;;16.70;14.57;;;15.20;61.50;;;;;;5053862;28;20211;-68
2022/12/02 03:29:26;;;;;;;15.98;14.00;;;15.20;60.70;;;;;;5053154;28;20179;-68
2022/12/02 03:31:52;;;;;;;18.33;14.45;;;15.20;60.70;;;;;;5053344;28;20588;-67
2022/12/02 03:34:17;;;;;;;15.90;13.18;;;15.20;60.70;;;;;;5053528;28;20633;-67
2022/12/02 03:36:43;;;;;;;16.60;13.40;;;15.20;60.70;;;;;;5051464;28;20176;-68
2022/12/02 03:39:09;;;;;;;17.45;13.95;;;15.10;60.60;;;;;;5052564;28;20305;-68
2022/12/02 03:41:35;;;;;;;15.93;13.85;;;15.10;61.40;;;;;;5053198;28;20534;-67
2022/12/02 03:44:00;;;;;;;15.60;12.52;;;15.10;60.60;;;;;;5051663;28;20179;-67
2022/12/02 03:46:26;;;;;;;16.08;13.20;;;15.10;60.70;;;;;;5053652;28;20195;-67
2022/12/02 03:48:51;;;;;;;16.83;13.52;;;15.10;60.60;;;;;;5053099;28;20258;-68
2022/12/02 03:51:17;;;;;;;16.60;14.05;;;15.10;60.60;;;;;;5052610;28;20270;-67
2022/12/02 03:53:43;;;;;;;15.15;13.55;;;15.10;60.60;;;;;;5052024;28;20210;-67
2022/12/02 03:56:08;;;;;;;16.13;13.23;;;15.10;60.60;;;;;;5052388;28;20179;-67
2022/12/02 03:58:35;;;;;;;16.27;12.88;;;15.10;60.70;;;;;;5051358;28;20171;-67
2022/12/02 04:01:01;;;;;;;15.07;12.88;;;15.10;60.60;;;;;;5052310;28;20258;-67
2022/12/02 04:03:26;;;;;;;15.82;13.43;;;15.10;60.60;;;;;;5052931;28;20700;-67
2022/12/02 04:05:52;;;;;;;15.38;13.20;;;15.10;60.60;;;;;;5052377;28;20307;-68
2022/12/02 04:08:18;;;;;;;17.27;13.30;;;15.10;60.70;;;;;;5053291;28;20583;-68
2022/12/02 04:10:43;;;;;;;16.98;13.35;;;15.10;60.70;;;;;;5052296;28;20262;-68
2022/12/02 04:13:09;;;;;;;15.05;13.15;;;15.00;60.60;;;;;;5053040;28;20214;-68
2022/12/02 04:15:34;;;;;;;16.20;12.93;;;15.00;60.50;;;;;;5052819;28;20175;-68
2022/12/02 04:18:00;;;;;;;15.50;12.95;;;15.00;60.50;;;;;;5052129;28;20242;-68
2022/12/02 04:20:25;;;;;;;17.25;13.07;;;15.00;60.60;;;;;;5053172;28;20603;-67
2022/12/02 04:22:52;;;;;;;16.48;13.38;;;15.00;60.60;;;;;;5052782;28;20209;-67
2022/12/02 04:25:17;;;;;;;15.98;13.30;;;15.00;60.60;;;;;;5052390;28;20257;-67
2022/12/02 04:27:43;;;;;;;15.73;13.18;;;15.00;60.60;;;;;;5052609;28;20214;-67
2022/12/02 04:30:08;;;;;;;15.57;13.43;;;15.00;60.60;;;;;;5052909;28;20213;-67
2022/12/02 04:32:34;;;;;;;13.70;12.02;;;15.00;60.60;;;;;;5051779;28;20226;-67
2022/12/02 04:35:00;;;;;;;14.48;12.90;;;15.00;60.60;;;;;;5052885;28;20167;-68
2022/12/02 04:37:25;;;;;;;14.75;12.10;;;15.00;60.50;;;;;;5052990;28;20183;-68
2022/12/02 04:39:51;;;;;;;14.82;12.95;;;15.00;60.60;;;;;;5051817;28;20173;-67
2022/12/02 04:42:16;;;;;;;14.63;12.48;;;15.00;60.60;;;;;;5052839;28;20170;-67
2022/12/02 04:44:42;;;;;;;15.02;12.13;;;15.00;60.60;;;;;;5053642;28;20565;-67
2022/12/02 04:47:07;;;;;;;14.50;11.45;;;15.00;60.50;;;;;;5055889;28;20265;-67
2022/12/02 04:49:33;;;;;;;14.48;12.13;;;15.00;60.60;;;;;;5056344;28;20621;-67
2022/12/02 04:51:58;;;;;;;13.82;12.20;;;15.00;60.60;;;;;;5056935;28;20206;-68
2022/12/02 04:54:24;;;;;;;13.98;12.20;;;15.00;60.60;;;;;;5056077;28;20179;-67
2022/12/02 04:56:49;;;;;;;13.65;11.30;;;14.90;60.60;;;;;;5056525;28;20217;-67
2022/12/02 04:59:15;;;;;;;13.45;10.82;;;14.90;60.50;;;;;;5056690;28;20213;-67
2022/12/02 05:01:40;;;;;;;13.32;11.70;;;14.90;60.60;;;;;;5055550;28;20241;-67
2022/12/02 05:04:06;;;;;;;15.52;12.90;;;14.90;60.50;;;;;;5056424;28;20649;-67
2022/12/02 05:06:31;;;;;;;13.73;11.10;;;14.90;60.60;;;;;;5056318;28;20174;-68
2022/12/02 05:08:57;;;;;;;14.20;11.55;;;14.90;60.50;;;;;;5055601;28;20671;-68
2022/12/02 05:11:22;;;;;;;15.18;12.13;;;14.90;60.60;;;;;;5056253;28;20175;-68
2022/12/02 05:13:48;;;;;;;15.70;11.25;;;14.90;60.60;;;;;;5056093;28;20187;-67
2022/12/02 05:16:13;;;;;;;13.25;11.20;;;14.90;60.60;;;;;;5055574;28;20176;-68
2022/12/02 05:18:39;;;;;;;13.25;11.85;;;14.90;60.60;;;;;;5055623;28;20230;-67
2022/12/02 05:21:04;;;;;;;13.45;11.18;;;14.90;60.50;;;;;;5055706;28;20183;-68
2022/12/02 05:23:30;;;;;;;13.50;11.93;;;14.90;60.50;;;;;;5056175;28;20163;-67
2022/12/02 05:25:55;;;;;;;14.32;12.00;;;14.90;60.60;;;;;;5056191;28;20179;-67
2022/12/02 05:28:21;;;;;;;13.70;11.60;;;14.90;60.60;;;;;;5055535;28;20167;-68
2022/12/02 05:30:46;;;;;;;14.23;11.40;;;14.90;61.50;;;;;;5055795;28;20182;-68
2022/12/02 05:33:12;;;;;;;12.82;10.50;;;14.80;60.50;;;;;;5055618;28;20297;-68
2022/12/02 05:35:37;;;;;;;14.30;11.13;;;14.80;60.60;;;;;;5054995;28;20179;-68
2022/12/02 05:38:03;;;;;;;13.10;10.75;;;14.80;60.50;;;;;;5056081;28;20171;-68
2022/12/02 05:40:28;;;;;;;12.45;10.88;;;14.80;61.40;;;;;;5056095;28;20180;-68
2022/12/02 05:42:54;;;;;;;13.07;10.60;;;14.80;60.60;;;;;;5054825;28;20198;-68
2022/12/02 05:45:20;;;;;;;11.98;10.48;;;14.80;60.50;;;;;;5055819;28;20534;-67
2022/12/02 05:47:48;;;;;;;13.05;11.02;;;14.80;60.50;;;;;;5055484;28;20658;-67
2022/12/02 05:50:14;;;;;;;14.30;11.88;;;14.80;60.60;;;;;;5055031;28;20171;-67
2022/12/02 05:52:39;;;;;;;13.68;11.10;;;14.80;60.50;;;;;;5055428;28;20221;-67
2022/12/02 05:55:18;;;;;;;12.38;11.07;;;14.80;60.50;;;;;;5055711;28;20194;-67
2022/12/02 05:57:44;;;;;;;12.20;10.50;;;14.80;60.60;;;;;;5053644;28;20185;-67
2022/12/02 06:00:22;;;;;;;11.88;10.57;;;14.80;60.60;;;;;;5054369;28;20535;-67
2022/12/02 06:02:51;;;;;;;12.35;10.48;;;14.80;60.60;;;;;;5055258;28;20202;-68
2022/12/02 06:05:23;;;;;;;12.00;10.32;;;14.80;60.60;;;;;;5053444;28;20516;-68
2022/12/02 06:07:52;;;;;;;13.02;10.43;;;14.80;60.60;;;;;;5054961;28;20183;-68
2022/12/02 06:10:26;;;;;;;11.57;10.18;;;14.80;60.60;;;;;;5054659;28;20185;-68
2022/12/02 06:12:53;;;;;;;11.45;10.07;;;14.80;60.50;;;;;;5054920;28;20206;-68
2022/12/02 06:15:19;;;;;;;11.73;9.75;;;14.80;60.50;;;;;;5054418;28;20183;-68
2022/12/02 06:17:44;;;;;;;11.18;9.90;;;15.00;60.40;;;;;;5054089;28;20225;-68
2022/12/02 06:20:29;;;;;;;12.32;10.30;;;15.20;60.30;;;;;;5055208;28;20174;-68
2022/12/02 06:22:55;;;;;;;10.90;9.25;;;15.40;60.00;;;;;;5054734;28;20202;-68
2022/12/02 06:25:28;;;;;;;12.00;8.90;;;15.60;59.70;;;;;;5054293;28;20579;-67
2022/12/02 06:27:56;;;;;;;10.10;8.38;;;15.80;59.40;;;;;;5055211;28;20187;-68
2022/12/02 06:30:21;;;;;;;10.63;9.20;;;16.00;59.00;;;;;;5053621;28;20687;-68
2022/12/02 06:32:54;;;;;;;9.73;7.90;;;16.40;58.40;;;;;;5053891;28;20206;-68
2022/12/02 06:35:24;;;;;;;10.05;8.63;;;16.60;57.70;;;;;;5054755;28;20173;-68
2022/12/02 06:37:53;;;;;;;9.50;8.10;;;16.80;57.30;;;;;;5053094;28;20266;-68
2022/12/02 06:40:22;;;;;;;9.30;8.30;;;17.00;56.90;;;;;;5054248;28;20575;-68
2022/12/02 06:42:48;;;;;;;7.75;6.90;;;17.20;56.70;;;;;;5054404;28;20633;-68
2022/12/02 06:45:19;;;;;;;10.20;7.82;;;17.30;56.50;;;;;;5054837;28;20269;-68
2022/12/02 06:48:07;;;;;;;9.73;8.00;;;17.30;56.40;;;;;;5052482;28;20634;-68
2022/12/02 06:50:34;;;;;;;8.82;7.93;;;17.40;56.40;;;;;;5054451;28;20538;-68
2022/12/02 06:53:20;;;;;;;9.40;7.70;;;17.40;56.40;;;;;;5053912;28;20252;-68
2022/12/02 06:55:46;;;;;;;9.65;7.88;;;17.20;56.50;;;;;;5053846;28;20175;-68
2022/12/02 06:58:36;;;;;;;9.02;7.65;;;17.20;56.80;;;;;;5054378;28;20167;-68
2022/12/02 07:01:07;;;;;;;9.90;7.90;;;17.10;56.90;;;;;;5053856;28;20269;-68
2022/12/02 07:03:34;;;;;;;9.38;7.47;;;17.00;57.10;;;;;;5054247;28;20598;-68
2022/12/02 07:06:16;;;;;;;8.20;6.97;;;17.00;57.10;;;;;;5054173;28;20183;-68
2022/12/02 07:08:41;;;;;;;8.23;7.13;;;17.10;57.10;;;;;;5053163;28;20649;-68
2022/12/02 07:11:50;;;;;;;8.45;7.43;;;17.10;57.10;;;;;;5052853;28;20215;-68
2022/12/02 07:14:53;;;;;;;8.13;6.80;;;17.20;56.90;;;;;;5053534;28;20191;-68
2022/12/02 07:17:22;;;;;;;8.27;7.10;;;17.30;56.70;;;;;;5045309;28;20179;-68
2022/12/02 07:19:56;;;;;;;8.57;7.43;;;17.40;56.50;;;;;;5053562;28;20643;-68
2022/12/02 07:22:45;;;;;;;7.72;6.38;;;17.50;56.40;;;;;;5053376;28;20182;-68
2022/12/02 07:25:16;;;;;;;8.68;7.45;;;17.50;56.40;;;;;;5053917;28;20529;-68
2022/12/02 07:27:44;;;;;;;9.00;7.28;;;17.50;56.60;;;;;;5052706;28;20180;-68
2022/12/02 07:30:20;;;;;;;7.07;6.28;;;17.50;56.60;;;;;;5054109;28;20172;-68
2022/12/02 07:32:46;;;;;;;7.22;6.35;;;17.50;56.50;;;;;;5052386;28;20237;-68
2022/12/02 07:35:11;;;;;;;7.28;6.55;;;17.60;56.40;;;;;;5052989;28;20629;-68
2022/12/02 07:37:37;;;;;;;7.15;6.45;;;17.70;56.30;;;;;;5053411;28;20660;-68
2022/12/02 07:40:02;;;;;;;7.53;6.57;;;17.70;56.20;;;;;;5053486;28;20167;-68
2022/12/02 07:42:28;;;;;;;7.55;6.35;;;17.70;56.10;;;;;;5052644;28;20202;-68
2022/12/02 07:44:53;;;;;;;7.70;6.32;;;17.80;56.10;;;;;;5053131;28;20203;-68
2022/12/02 07:47:19;;;;;;;7.85;6.75;;;17.80;56.10;;;;;;5053410;28;20535;-65
2022/12/02 07:49:44;;;;;;;8.10;6.10;;;17.80;56.00;;;;;;5052729;28;20175;-66
2022/12/02 07:52:10;;;;;;;8.48;6.80;;;17.80;56.10;;;;;;5053216;28;20669;-65
2022/12/02 07:54:35;;;;;;;8.15;6.85;;;17.70;56.40;;;;;;5052751;28;20179;-65
2022/12/02 07:57:01;;;;;;;7.45;6.43;;;17.70;56.50;;;;;;5051884;28;20175;-68
2022/12/02 07:59:26;;;;;;;7.97;6.68;;;17.60;56.70;;;;;;5053189;28;20201;-67
2022/12/02 08:01:52;;;;;;;7.55;6.15;;;17.50;57.50;;;;;;5052337;28;20183;-68
2022/12/02 08:04:17;;;;;;;7.38;6.38;;;17.40;57.40;;;;;;5052272;28;20179;-64
2022/12/02 08:06:43;;;;;;;9.80;6.88;;;17.40;57.50;;;;;;5052715;28;20621;-69
2022/12/02 08:09:09;;;;;;;8.45;6.72;;;17.40;57.60;;;;;;5053126;28;20185;-66
2022/12/02 08:11:34;;;;;;;11.93;7.35;;;17.40;57.50;;;;;;5051792;28;20194;-66
2022/12/02 08:14:00;;;;;;;8.98;7.45;;;17.30;57.60;;;;;;5053082;28;20179;-67
2022/12/02 08:16:25;;;;;;;9.98;7.03;;;17.30;57.70;;;;;;5053048;28;20167;-67
2022/12/02 08:18:51;;;;;;;9.98;6.68;;;17.20;57.70;;;;;;5051297;28;20222;-65
2022/12/02 08:21:16;;;;;;;9.15;7.05;;;17.10;58.00;;;;;;5052746;28;20217;-63
2022/12/02 08:23:42;;;;;;;9.57;6.88;;;17.10;58.20;;;;;;5052554;28;20213;-63
2022/12/02 08:26:07;;;;;;;8.18;6.55;;;17.10;58.10;;;;;;5052042;28;20350;-63
2022/12/02 08:28:33;;;;;;;10.18;6.88;;;17.10;58.30;;;;;;5052625;28;20293;-64
2022/12/02 08:30:59;;;;;;;7.28;6.38;;;17.10;58.40;;;;;;5052004;28;20376;-66
2022/12/02 08:33:24;;;;;;;7.65;5.70;;;17.10;58.40;;;;;;5052539;28;20214;-64
2022/12/02 08:35:50;;;;;;;10.27;7.05;;;17.10;58.40;;;;;;5052222;28;20191;-68
2022/12/02 08:38:15;;;;;;;9.68;6.68;;;17.10;58.50;;;;;;5051928;28;20175;-64
2022/12/02 08:40:41;;;;;;;8.68;7.22;;;17.00;58.40;;;;;;5052361;28;20183;-62
2022/12/02 08:43:06;;;;;;;9.32;7.50;;;16.90;58.60;;;;;;5052946;28;20182;-63
2022/12/02 08:45:32;;;;;;;7.82;6.82;;;16.90;58.80;;;;;;5051869;28;20198;-64
2022/12/02 08:48:00;;;;;;;9.23;6.78;;;16.90;58.90;;;;;;5052519;28;20261;-64
2022/12/02 08:50:26;;;;;;;8.68;6.88;;;16.80;59.00;;;;;;5052582;28;20579;-64
2022/12/02 08:52:51;;;;;;;9.82;7.65;;;16.80;59.00;;;;;;5051300;28;20673;-65
2022/12/02 08:55:17;;;;;;;11.13;7.40;;;16.80;59.00;;;;;;5052281;28;20183;-65
2022/12/02 08:57:42;;;;;;;11.48;7.88;;;16.80;59.00;;;;;;5052330;28;20190;-64
2022/12/02 09:00:08;;;;;;;12.38;7.95;;;16.70;59.00;;;;;;5051873;28;20199;-64
2022/12/02 09:02:35;;;;;;;11.00;7.55;;;16.70;59.10;;;;;;5052297;28;20179;-65
2022/12/02 09:05:00;;;;;;;10.45;7.35;;;16.70;59.10;;;;;;5052580;28;20221;-65
2022/12/02 09:07:26;;;;;;;10.00;7.85;;;16.60;59.10;;;;;;5051654;28;20171;-66
2022/12/02 09:09:51;;;;;;;11.27;7.63;;;16.70;59.30;;;;;;5051889;28;20621;-67
2022/12/02 09:12:17;;;;;;;13.82;7.35;;;16.70;59.20;;;;;;5052371;28;20207;-66
2022/12/02 09:14:42;;;;;;;13.88;7.65;;;16.70;59.20;;;;;;5051532;28;20183;-66
2022/12/02 09:17:08;;;;;;;11.13;7.53;;;16.80;59.20;;;;;;5052093;28;20175;-63
2022/12/02 09:19:34;;;;;;;11.07;8.38;;;16.80;59.00;;;;;;5051874;28;20261;-66
2022/12/02 09:21:59;;;;;;;12.50;8.23;;;16.80;58.80;;;;;;5052140;28;20179;-64
2022/12/02 09:24:25;;;;;;;9.10;7.43;;;16.90;58.90;;;;;;5051692;28;20581;-64
2022/12/02 09:26:50;;;;;;;13.13;7.85;;;16.90;58.80;;;;;;5051349;28;20529;-63
2022/12/02 09:29:16;;;;;;;9.98;7.35;;;16.80;58.80;;;;;;5051425;28;20178;-63
2022/12/02 09:31:41;;;;;;;11.50;7.72;;;16.80;59.00;;;;;;5054596;28;20190;-63
2022/12/02 09:34:07;;;;;;;11.95;8.02;;;16.80;59.00;;;;;;5055850;28;20186;-66
2022/12/02 09:36:33;;;;;;;13.20;7.60;;;16.80;59.00;;;;;;5054960;28;20177;-65
2022/12/02 09:38:58;;;;;;;9.43;7.50;;;16.90;59.60;;;;;;5055697;28;20175;-66
2022/12/02 09:41:24;;;;;;;10.57;6.97;;;17.00;59.10;;;;;;5055007;28;20660;-65
2022/12/02 09:43:49;;;;;;;11.80;7.65;;;16.90;58.90;;;;;;5055795;28;20205;-66
2022/12/02 09:46:15;;;;;;;9.68;7.38;;;16.90;58.90;;;;;;5054466;28;20250;-65
2022/12/02 09:48:40;;;;;;;10.05;7.28;;;16.80;59.00;;;;;;5054512;28;20171;-68
2022/12/02 09:51:06;;;;;;;12.82;7.30;;;16.80;59.00;;;;;;5055676;28;20191;-68
2022/12/02 09:53:33;;;;;;;8.73;7.00;;;16.80;59.00;;;;;;5037169;28;20210;-65
2022/12/02 09:55:59;;;;;;;9.63;7.45;;;16.80;59.10;;;;;;5037436;28;20179;-68
2022/12/02 09:58:25;;;;;;;10.75;6.45;;;16.80;59.20;;;;;;5055606;28;20240;-65
2022/12/02 10:00:51;;;;;;;8.75;6.93;;;16.80;59.10;;;;;;5055123;28;20179;-66
2022/12/02 10:03:17;;;;;;;9.13;6.60;;;16.80;59.10;;;;;;5054633;28;20198;-66
2022/12/02 10:05:42;;;;;;;10.57;7.10;;;16.80;59.10;;;;;;5055060;28;20171;-65
2022/12/02 10:08:25;;;;;;;13.88;7.15;;;16.90;59.20;;;;;;5054059;28;20214;-66
2022/12/02 10:10:50;;;;;;;10.75;6.70;;;16.80;59.30;;;;;;5058867;28;20722;-67
2022/12/02 10:13:17;;;;;;;12.68;7.57;;;16.80;59.30;;;;;;5038734;28;20218;-64
2022/12/02 10:15:43;;;;;;;11.88;7.40;;;16.80;59.30;;;;;;5053676;28;20175;-66
2022/12/02 10:18:16;;;;;;;11.18;7.50;;;16.70;59.20;;;;;;5054173;28;20227;-66
2022/12/02 10:20:42;;;;;;;12.20;7.78;;;16.70;59.40;;;;;;5054746;28;20183;-66
2022/12/02 10:23:16;;;;;;;13.20;7.68;;;16.80;59.40;;;;;;5055159;28;20263;-66
2022/12/02 10:25:45;;;;;;;10.07;7.47;;;16.70;59.30;;;;;;5054076;28;20178;-66
2022/12/02 10:28:38;;;;;;;11.75;7.47;;;16.70;59.40;;;;;;5055059;28;20183;-65
2022/12/02 10:31:11;;;;;;;10.48;7.22;;;16.70;59.20;;;;;;5053138;28;20211;-66
2022/12/02 10:33:50;;;;;;;12.52;7.75;;;16.70;59.30;;;;;;5054665;28;20242;-65
2022/12/02 10:36:35;;;;;;;11.95;7.97;;;16.70;59.40;;;;;;5053830;28;20172;-65
2022/12/02 10:39:22;;;;;;;14.18;7.43;;;16.60;59.40;;;;;;5054161;28;20209;-67
2022/12/02 10:41:49;;;;;;;9.02;6.93;;;16.60;59.60;;;;;;5054250;28;20185;-65
2022/12/02 10:44:19;;;;;;;12.98;6.88;;;16.50;59.60;;;;;;5036953;28;20214;-65
2022/12/02 10:46:45;;;;;;;8.57;6.38;;;16.60;59.80;;;;;;5053636;28;20233;-64
2022/12/02 10:49:30;;;;;;;10.48;7.60;;;16.60;59.70;;;;;;5054557;28;20179;-65
2022/12/02 10:51:58;;;;;;;10.23;7.13;;;16.60;59.70;;;;;;5053617;28;20592;-67
2022/12/02 10:54:28;;;;;;;10.70;7.05;;;16.60;59.70;;;;;;5054491;28;20214;-65
2022/12/02 10:57:00;;;;;;;11.95;7.55;;;16.50;59.70;;;;;;5053008;28;20179;-65
2022/12/02 10:59:26;;;;;;;11.18;7.20;;;16.50;59.70;;;;;;5053793;28;20240;-66
2022/12/02 11:01:51;;;;;;;9.65;7.50;;;16.50;59.70;;;;;;5052609;28;20625;-66
2022/12/02 11:04:17;;;;;;;9.23;7.45;;;16.40;59.60;;;;;;5036385;28;20205;-66
2022/12/02 11:06:43;;;;;;;10.82;7.13;;;16.40;59.70;;;;;;5053475;28;20167;-66
2022/12/02 11:09:35;;;;;;;11.65;7.35;;;16.40;59.70;;;;;;5052901;28;20596;-66
2022/12/02 11:12:39;;;;;;;11.13;7.40;;;16.30;59.70;;;;;;5052758;28;20210;-66
2022/12/02 11:15:31;;;;;;;9.90;7.43;;;16.30;59.70;;;;;;5053637;28;20183;-66
2022/12/02 11:17:57;;;;;;;10.00;7.47;;;16.30;59.70;;;;;;5052970;28;20233;-66
2022/12/02 11:20:33;;;;;;;11.50;8.05;;;16.20;59.70;;;;;;5053326;28;20641;-66
2022/12/02 11:22:59;;;;;;;10.48;7.18;;;16.20;59.90;;;;;;5053867;28;20655;-66
2022/12/02 11:25:42;;;;;;;11.60;7.10;;;16.20;59.90;;;;;;5053930;28;20179;-65
2022/12/02 11:28:17;;;;;;;11.07;7.50;;;16.20;59.80;;;;;;5053208;28;20175;-66
2022/12/02 11:30:43;;;;;;;9.43;7.03;;;16.20;59.90;;;;;;5053305;28;20535;-67
2022/12/02 11:33:46;;;;;;;9.40;7.35;;;16.10;59.80;;;;;;5053573;28;20669;-68
2022/12/02 11:36:13;;;;;;;14.13;7.95;;;16.10;59.80;;;;;;5053252;28;20225;-68
2022/12/02 11:38:46;;;;;;;10.15;7.00;;;16.10;59.80;;;;;;5053376;28;20183;-68
2022/12/02 11:41:11;;;;;;;8.27;7.00;;;16.20;59.80;;;;;;5052978;28;20651;-67
2022/12/02 11:43:46;;;;;;;10.77;7.60;;;16.20;59.70;;;;;;5053201;28;20659;-67
2022/12/02 11:46:35;;;;;;;8.80;7.05;;;16.20;59.70;;;;;;5053356;28;20178;-67
2022/12/02 11:49:01;;;;;;;10.80;7.68;;;16.20;59.70;;;;;;5044477;28;20316;-71
2022/12/02 11:51:35;;;;;;;11.02;7.75;;;16.20;59.60;;;;;;5053423;28;20221;-67
2022/12/02 11:54:00;;;;;;;14.48;8.10;;;16.30;59.70;;;;;;5052371;28;20600;-70
2022/12/02 11:56:29;;;;;;;12.55;7.65;;;16.20;59.70;;;;;;5052522;28;20266;-69
2022/12/02 11:58:54;;;;;;;10.32;7.50;;;16.20;59.70;;;;;;5035411;28;20194;-71
2022/12/02 12:01:20;;;;;;;12.77;8.40;;;16.20;59.80;;;;;;5053152;28;20175;-70
2022/12/02 12:03:50;;;;;;;10.18;7.78;;;16.20;59.90;;;;;;5052040;28;20178;-67
2022/12/02 12:06:16;;;;;;;11.93;8.10;;;16.10;59.90;;;;;;5053318;28;20591;-69
2022/12/02 12:08:49;;;;;;;13.82;7.53;;;16.20;59.90;;;;;;5052768;28;20540;-68
2022/12/02 12:11:19;;;;;;;12.77;8.30;;;16.20;60.00;;;;;;5052649;28;20281;-71
2022/12/02 12:14:18;;;;;;;11.77;8.23;;;16.20;59.90;;;;;;5052740;28;20215;-68
2022/12/02 12:16:46;;;;;;;10.32;7.43;;;16.20;60.10;;;;;;5052025;28;20645;-69
2022/12/02 12:19:11;;;;;;;13.15;7.85;;;16.10;59.90;;;;;;5051540;28;20235;-69
2022/12/02 12:21:43;;;;;;;13.68;8.00;;;16.10;59.80;;;;;;5052745;28;20182;-70
2022/12/02 12:24:19;;;;;;;14.10;8.10;;;16.10;59.90;;;;;;5054405;28;20203;-66
2022/12/02 12:26:51;;;;;;;11.73;8.05;;;16.10;60.70;;;;;;5052654;28;20193;-65
2022/12/02 12:29:18;;;;;;;11.40;7.35;;;16.10;59.90;;;;;;5052873;28;20179;-67
2022/12/02 12:31:43;;;;;;;11.10;7.22;;;16.10;59.90;;;;;;5051497;28;20831;-68
2022/12/02 12:34:09;;;;;;;10.52;7.50;;;16.20;59.90;;;;;;5052600;28;20274;-68
2022/12/02 12:36:35;;;;;;;12.00;8.32;;;16.20;59.90;;;;;;5052830;28;20197;-69
2022/12/02 12:39:00;;;;;;;12.25;7.20;;;16.20;59.80;;;;;;5052266;28;20237;-67
2022/12/02 12:41:26;;;;;;;11.82;7.20;;;16.20;59.80;;;;;;5053024;28;20211;-67